sensor_id;sensor_type;location;lat;lon;timestamp;P1;durP1;ratioP1;P2;durP2;ratioP2
51901;SDS011;37929;53.218;6.548;2023-04-22T00:01:37;9.10;;;7.25;;
51901;SDS011;37929;53.218;6.548;2023-04-22T00:04:06;9.55;;;6.97;;
51901;SDS011;37929;53.218;6.548;2023-04-22T00:06:33;8.60;;;6.82;;
51901;SDS011;37929;53.218;6.548;2023-04-22T00:08:59;9.07;;;7.43;;
51901;SDS011;37929;53.218;6.548;2023-04-22T00:11:25;8.55;;;7.22;;
51901;SDS011;37929;53.218;6.548;2023-04-22T00:13:51;10.85;;;7.03;;
51901;SDS011;37929;53.218;6.548;2023-04-22T00:16:17;10.27;;;7.50;;
51901;SDS011;37929;53.218;6.548;2023-04-22T00:18:43;7.88;;;7.03;;
51901;SDS011;37929;53.218;6.548;2023-04-22T00:21:08;11.45;;;7.18;;
51901;SDS011;37929;53.218;6.548;2023-04-22T00:23:34;8.43;;;6.82;;
51901;SDS011;37929;53.218;6.548;2023-04-22T00:26:00;10.95;;;7.10;;
51901;SDS011;37929;53.218;6.548;2023-04-22T00:28:26;8.27;;;6.95;;
51901;SDS011;37929;53.218;6.548;2023-04-22T00:30:52;11.25;;;7.55;;
51901;SDS011;37929;53.218;6.548;2023-04-22T00:33:21;10.73;;;7.32;;
51901;SDS011;37929;53.218;6.548;2023-04-22T00:35:47;12.02;;;7.82;;
51901;SDS011;37929;53.218;6.548;2023-04-22T00:38:13;10.75;;;7.22;;
51901;SDS011;37929;53.218;6.548;2023-04-22T00:40:39;10.82;;;6.82;;
51901;SDS011;37929;53.218;6.548;2023-04-22T00:43:05;9.10;;;7.30;;
51901;SDS011;37929;53.218;6.548;2023-04-22T00:45:36;11.13;;;8.63;;
51901;SDS011;37929;53.218;6.548;2023-04-22T00:48:02;11.27;;;7.72;;
51901;SDS011;37929;53.218;6.548;2023-04-22T00:50:31;10.13;;;7.47;;
51901;SDS011;37929;53.218;6.548;2023-04-22T00:52:57;10.52;;;7.03;;
51901;SDS011;37929;53.218;6.548;2023-04-22T00:55:22;9.43;;;7.53;;
51901;SDS011;37929;53.218;6.548;2023-04-22T00:57:49;10.95;;;7.50;;
51901;SDS011;37929;53.218;6.548;2023-04-22T01:00:16;9.73;;;7.25;;
51901;SDS011;37929;53.218;6.548;2023-04-22T01:02:44;10.20;;;7.38;;
51901;SDS011;37929;53.218;6.548;2023-04-22T01:05:11;9.85;;;7.68;;
51901;SDS011;37929;53.218;6.548;2023-04-22T01:07:36;11.52;;;7.78;;
51901;SDS011;37929;53.218;6.548;2023-04-22T01:10:03;10.73;;;7.43;;
51901;SDS011;37929;53.218;6.548;2023-04-22T01:12:29;8.93;;;7.35;;
51901;SDS011;37929;53.218;6.548;2023-04-22T01:14:55;11.20;;;7.65;;
51901;SDS011;37929;53.218;6.548;2023-04-22T01:17:21;9.02;;;7.25;;
51901;SDS011;37929;53.218;6.548;2023-04-22T01:19:48;11.43;;;8.85;;
51901;SDS011;37929;53.218;6.548;2023-04-22T01:22:15;12.25;;;9.43;;
51901;SDS011;37929;53.218;6.548;2023-04-22T01:24:41;11.00;;;8.95;;
51901;SDS011;37929;53.218;6.548;2023-04-22T01:27:07;12.40;;;9.05;;
51901;SDS011;37929;53.218;6.548;2023-04-22T01:29:34;11.27;;;8.50;;
51901;SDS011;37929;53.218;6.548;2023-04-22T01:32:10;12.52;;;8.98;;
51901;SDS011;37929;53.218;6.548;2023-04-22T01:34:36;12.23;;;9.30;;
51901;SDS011;37929;53.218;6.548;2023-04-22T01:37:05;11.95;;;8.95;;
51901;SDS011;37929;53.218;6.548;2023-04-22T01:39:31;13.32;;;9.88;;
51901;SDS011;37929;53.218;6.548;2023-04-22T01:42:01;11.13;;;8.75;;
51901;SDS011;37929;53.218;6.548;2023-04-22T01:44:30;13.30;;;10.20;;
51901;SDS011;37929;53.218;6.548;2023-04-22T01:46:55;13.75;;;9.95;;
51901;SDS011;37929;53.218;6.548;2023-04-22T01:49:21;10.55;;;8.73;;
51901;SDS011;37929;53.218;6.548;2023-04-22T01:51:53;13.30;;;10.02;;
51901;SDS011;37929;53.218;6.548;2023-04-22T01:54:19;13.25;;;10.32;;
51901;SDS011;37929;53.218;6.548;2023-04-22T01:56:56;12.80;;;9.32;;
51901;SDS011;37929;53.218;6.548;2023-04-22T01:59:22;12.32;;;9.60;;
51901;SDS011;37929;53.218;6.548;2023-04-22T02:01:51;12.00;;;8.65;;
51901;SDS011;37929;53.218;6.548;2023-04-22T02:04:17;10.55;;;8.35;;
51901;SDS011;37929;53.218;6.548;2023-04-22T02:06:45;13.68;;;9.10;;
51901;SDS011;37929;53.218;6.548;2023-04-22T02:09:11;9.65;;;7.57;;
51901;SDS011;37929;53.218;6.548;2023-04-22T02:11:43;11.68;;;8.50;;
51901;SDS011;37929;53.218;6.548;2023-04-22T02:14:08;9.80;;;8.15;;
51901;SDS011;37929;53.218;6.548;2023-04-22T02:16:34;10.68;;;8.88;;
51901;SDS011;37929;53.218;6.548;2023-04-22T02:19:00;11.15;;;7.80;;
51901;SDS011;37929;53.218;6.548;2023-04-22T02:21:28;9.38;;;7.47;;
51901;SDS011;37929;53.218;6.548;2023-04-22T02:23:56;9.82;;;7.55;;
51901;SDS011;37929;53.218;6.548;2023-04-22T02:26:22;10.85;;;8.48;;
51901;SDS011;37929;53.218;6.548;2023-04-22T02:28:50;13.10;;;8.82;;
51901;SDS011;37929;53.218;6.548;2023-04-22T02:31:16;10.95;;;8.93;;
51901;SDS011;37929;53.218;6.548;2023-04-22T02:33:42;12.57;;;9.30;;
51901;SDS011;37929;53.218;6.548;2023-04-22T02:36:08;10.32;;;7.35;;
51901;SDS011;37929;53.218;6.548;2023-04-22T02:38:36;12.85;;;8.68;;
51901;SDS011;37929;53.218;6.548;2023-04-22T02:41:02;11.65;;;8.98;;
51901;SDS011;37929;53.218;6.548;2023-04-22T02:43:28;10.25;;;7.82;;
51901;SDS011;37929;53.218;6.548;2023-04-22T02:45:54;13.30;;;10.13;;
51901;SDS011;37929;53.218;6.548;2023-04-22T02:48:19;12.68;;;9.90;;
51901;SDS011;37929;53.218;6.548;2023-04-22T02:50:48;13.52;;;9.90;;
51901;SDS011;37929;53.218;6.548;2023-04-22T02:53:14;12.95;;;9.63;;
51901;SDS011;37929;53.218;6.548;2023-04-22T02:55:40;11.65;;;9.15;;
51901;SDS011;37929;53.218;6.548;2023-04-22T02:58:06;14.85;;;9.88;;
51901;SDS011;37929;53.218;6.548;2023-04-22T03:00:33;13.18;;;9.32;;
51901;SDS011;37929;53.218;6.548;2023-04-22T03:02:59;13.30;;;9.27;;
51901;SDS011;37929;53.218;6.548;2023-04-22T03:05:25;14.68;;;9.35;;
51901;SDS011;37929;53.218;6.548;2023-04-22T03:07:51;12.30;;;8.98;;
51901;SDS011;37929;53.218;6.548;2023-04-22T03:10:17;12.98;;;10.00;;
51901;SDS011;37929;53.218;6.548;2023-04-22T03:12:43;12.68;;;9.95;;
51901;SDS011;37929;53.218;6.548;2023-04-22T03:15:09;12.35;;;9.48;;
51901;SDS011;37929;53.218;6.548;2023-04-22T03:17:35;13.68;;;9.48;;
51901;SDS011;37929;53.218;6.548;2023-04-22T03:20:01;13.68;;;9.93;;
51901;SDS011;37929;53.218;6.548;2023-04-22T03:22:27;12.40;;;9.35;;
51901;SDS011;37929;53.218;6.548;2023-04-22T03:24:52;11.57;;;9.00;;
51901;SDS011;37929;53.218;6.548;2023-04-22T03:27:18;10.88;;;8.80;;
51901;SDS011;37929;53.218;6.548;2023-04-22T03:29:44;10.02;;;8.18;;
51901;SDS011;37929;53.218;6.548;2023-04-22T03:32:10;11.77;;;8.85;;
51901;SDS011;37929;53.218;6.548;2023-04-22T03:34:36;11.18;;;7.93;;
51901;SDS011;37929;53.218;6.548;2023-04-22T03:37:01;12.40;;;9.63;;
51901;SDS011;37929;53.218;6.548;2023-04-22T03:39:27;11.95;;;8.90;;
51901;SDS011;37929;53.218;6.548;2023-04-22T03:41:53;10.50;;;8.82;;
51901;SDS011;37929;53.218;6.548;2023-04-22T03:44:19;11.93;;;9.23;;
51901;SDS011;37929;53.218;6.548;2023-04-22T03:46:45;11.40;;;9.13;;
51901;SDS011;37929;53.218;6.548;2023-04-22T03:49:10;11.02;;;8.68;;
51901;SDS011;37929;53.218;6.548;2023-04-22T03:51:36;13.25;;;9.80;;
51901;SDS011;37929;53.218;6.548;2023-04-22T03:54:02;14.38;;;9.98;;
51901;SDS011;37929;53.218;6.548;2023-04-22T03:56:28;14.32;;;10.10;;
51901;SDS011;37929;53.218;6.548;2023-04-22T03:59:01;12.98;;;9.85;;
51901;SDS011;37929;53.218;6.548;2023-04-22T04:04:57;21.80;;;12.00;;
51901;SDS011;37929;53.218;6.548;2023-04-22T04:07:23;15.73;;;11.20;;
51901;SDS011;37929;53.218;6.548;2023-04-22T04:09:52;14.77;;;11.00;;
51901;SDS011;37929;53.218;6.548;2023-04-22T04:12:21;13.40;;;10.95;;
51901;SDS011;37929;53.218;6.548;2023-04-22T04:14:46;12.95;;;10.68;;
51901;SDS011;37929;53.218;6.548;2023-04-22T04:17:15;11.80;;;9.57;;
51901;SDS011;37929;53.218;6.548;2023-04-22T04:19:47;13.38;;;10.18;;
51901;SDS011;37929;53.218;6.548;2023-04-22T04:22:13;11.88;;;9.45;;
51901;SDS011;37929;53.218;6.548;2023-04-22T04:24:39;15.40;;;10.60;;
51901;SDS011;37929;53.218;6.548;2023-04-22T04:27:21;12.43;;;10.48;;
51901;SDS011;37929;53.218;6.548;2023-04-22T04:29:48;13.93;;;11.57;;
51901;SDS011;37929;53.218;6.548;2023-04-22T04:32:14;18.60;;;13.40;;
51901;SDS011;37929;53.218;6.548;2023-04-22T04:34:39;21.98;;;14.70;;
51901;SDS011;37929;53.218;6.548;2023-04-22T04:37:06;24.48;;;15.82;;
51901;SDS011;37929;53.218;6.548;2023-04-22T04:39:32;20.33;;;13.88;;
51901;SDS011;37929;53.218;6.548;2023-04-22T04:41:58;14.75;;;12.45;;
51901;SDS011;37929;53.218;6.548;2023-04-22T04:44:24;17.00;;;12.50;;
51901;SDS011;37929;53.218;6.548;2023-04-22T04:46:51;16.10;;;12.38;;
51901;SDS011;37929;53.218;6.548;2023-04-22T04:49:18;14.77;;;11.05;;
51901;SDS011;37929;53.218;6.548;2023-04-22T04:51:45;16.33;;;10.88;;
51901;SDS011;37929;53.218;6.548;2023-04-22T04:54:10;13.95;;;11.25;;
51901;SDS011;37929;53.218;6.548;2023-04-22T04:56:36;14.07;;;10.43;;
51901;SDS011;37929;53.218;6.548;2023-04-22T04:59:02;14.60;;;10.73;;
51901;SDS011;37929;53.218;6.548;2023-04-22T05:01:27;13.52;;;10.20;;
51901;SDS011;37929;53.218;6.548;2023-04-22T05:03:53;13.55;;;10.35;;
51901;SDS011;37929;53.218;6.548;2023-04-22T05:06:19;13.13;;;9.95;;
51901;SDS011;37929;53.218;6.548;2023-04-22T05:08:45;13.98;;;9.30;;
51901;SDS011;37929;53.218;6.548;2023-04-22T05:11:10;13.32;;;10.77;;
51901;SDS011;37929;53.218;6.548;2023-04-22T05:13:36;13.80;;;11.18;;
51901;SDS011;37929;53.218;6.548;2023-04-22T05:16:02;15.63;;;12.50;;
51901;SDS011;37929;53.218;6.548;2023-04-22T05:18:27;20.63;;;14.82;;
51901;SDS011;37929;53.218;6.548;2023-04-22T05:20:53;19.50;;;13.52;;
51901;SDS011;37929;53.218;6.548;2023-04-22T05:23:19;18.95;;;14.43;;
51901;SDS011;37929;53.218;6.548;2023-04-22T05:25:45;15.10;;;12.30;;
51901;SDS011;37929;53.218;6.548;2023-04-22T05:28:10;16.45;;;12.05;;
51901;SDS011;37929;53.218;6.548;2023-04-22T05:30:37;15.77;;;11.98;;
51901;SDS011;37929;53.218;6.548;2023-04-22T05:33:02;14.05;;;11.23;;
51901;SDS011;37929;53.218;6.548;2023-04-22T05:35:28;13.43;;;11.48;;
51901;SDS011;37929;53.218;6.548;2023-04-22T05:37:57;13.82;;;10.90;;
51901;SDS011;37929;53.218;6.548;2023-04-22T05:40:23;16.30;;;11.65;;
51901;SDS011;37929;53.218;6.548;2023-04-22T05:42:49;16.42;;;11.82;;
51901;SDS011;37929;53.218;6.548;2023-04-22T05:45:14;15.15;;;12.43;;
51901;SDS011;37929;53.218;6.548;2023-04-22T05:47:40;15.07;;;13.00;;
51901;SDS011;37929;53.218;6.548;2023-04-22T05:50:06;15.77;;;12.32;;
51901;SDS011;37929;53.218;6.548;2023-04-22T05:52:32;16.70;;;11.88;;
51901;SDS011;37929;53.218;6.548;2023-04-22T05:54:57;15.57;;;11.95;;
51901;SDS011;37929;53.218;6.548;2023-04-22T05:57:23;14.63;;;12.48;;
51901;SDS011;37929;53.218;6.548;2023-04-22T05:59:49;15.57;;;11.50;;
51901;SDS011;37929;53.218;6.548;2023-04-22T06:02:15;13.55;;;11.27;;
51901;SDS011;37929;53.218;6.548;2023-04-22T06:04:41;13.20;;;10.77;;
51901;SDS011;37929;53.218;6.548;2023-04-22T06:07:06;12.85;;;10.55;;
51901;SDS011;37929;53.218;6.548;2023-04-22T06:09:32;17.77;;;10.45;;
51901;SDS011;37929;53.218;6.548;2023-04-22T06:11:58;14.15;;;10.65;;
51901;SDS011;37929;53.218;6.548;2023-04-22T06:14:26;12.20;;;9.88;;
51901;SDS011;37929;53.218;6.548;2023-04-22T06:16:52;13.32;;;10.73;;
51901;SDS011;37929;53.218;6.548;2023-04-22T06:19:18;13.77;;;10.60;;
51901;SDS011;37929;53.218;6.548;2023-04-22T06:21:44;12.85;;;10.13;;
51901;SDS011;37929;53.218;6.548;2023-04-22T06:24:10;12.32;;;9.82;;
51901;SDS011;37929;53.218;6.548;2023-04-22T06:26:36;14.68;;;9.57;;
51901;SDS011;37929;53.218;6.548;2023-04-22T06:29:02;14.07;;;10.25;;
51901;SDS011;37929;53.218;6.548;2023-04-22T06:31:32;13.07;;;9.65;;
51901;SDS011;37929;53.218;6.548;2023-04-22T06:33:58;14.05;;;10.70;;
51901;SDS011;37929;53.218;6.548;2023-04-22T06:36:24;13.85;;;10.15;;
51901;SDS011;37929;53.218;6.548;2023-04-22T06:38:50;11.95;;;9.75;;
51901;SDS011;37929;53.218;6.548;2023-04-22T06:41:16;13.55;;;10.50;;
51901;SDS011;37929;53.218;6.548;2023-04-22T06:43:41;14.25;;;10.68;;
51901;SDS011;37929;53.218;6.548;2023-04-22T06:46:07;11.68;;;9.52;;
51901;SDS011;37929;53.218;6.548;2023-04-22T06:48:33;12.13;;;9.88;;
51901;SDS011;37929;53.218;6.548;2023-04-22T06:50:59;13.07;;;10.10;;
51901;SDS011;37929;53.218;6.548;2023-04-22T06:53:26;12.05;;;9.73;;
51901;SDS011;37929;53.218;6.548;2023-04-22T06:55:51;12.45;;;9.85;;
51901;SDS011;37929;53.218;6.548;2023-04-22T06:58:18;15.25;;;9.57;;
51901;SDS011;37929;53.218;6.548;2023-04-22T07:00:45;14.00;;;10.02;;
51901;SDS011;37929;53.218;6.548;2023-04-22T07:03:11;11.35;;;9.10;;
51901;SDS011;37929;53.218;6.548;2023-04-22T07:05:37;13.27;;;9.88;;
51901;SDS011;37929;53.218;6.548;2023-04-22T07:08:03;12.65;;;9.48;;
51901;SDS011;37929;53.218;6.548;2023-04-22T07:10:29;12.57;;;9.02;;
51901;SDS011;37929;53.218;6.548;2023-04-22T07:12:55;13.23;;;9.82;;
51901;SDS011;37929;53.218;6.548;2023-04-22T07:15:20;11.32;;;8.93;;
51901;SDS011;37929;53.218;6.548;2023-04-22T07:17:46;11.57;;;8.93;;
51901;SDS011;37929;53.218;6.548;2023-04-22T07:20:12;12.48;;;10.27;;
51901;SDS011;37929;53.218;6.548;2023-04-22T07:22:38;10.95;;;8.95;;
51901;SDS011;37929;53.218;6.548;2023-04-22T07:25:04;13.50;;;9.65;;
51901;SDS011;37929;53.218;6.548;2023-04-22T07:27:31;12.80;;;9.85;;
51901;SDS011;37929;53.218;6.548;2023-04-22T07:29:58;11.82;;;9.63;;
51901;SDS011;37929;53.218;6.548;2023-04-22T07:32:24;12.38;;;9.70;;
51901;SDS011;37929;53.218;6.548;2023-04-22T07:34:50;11.73;;;9.30;;
51901;SDS011;37929;53.218;6.548;2023-04-22T07:37:16;10.90;;;9.15;;
51901;SDS011;37929;53.218;6.548;2023-04-22T07:39:41;11.13;;;9.07;;
51901;SDS011;37929;53.218;6.548;2023-04-22T07:42:07;12.23;;;9.63;;
51901;SDS011;37929;53.218;6.548;2023-04-22T07:44:33;12.07;;;9.57;;
51901;SDS011;37929;53.218;6.548;2023-04-22T07:46:58;11.50;;;8.27;;
51901;SDS011;37929;53.218;6.548;2023-04-22T07:49:24;11.48;;;8.77;;
51901;SDS011;37929;53.218;6.548;2023-04-22T07:51:50;12.23;;;9.40;;
51901;SDS011;37929;53.218;6.548;2023-04-22T07:54:16;10.15;;;8.27;;
51901;SDS011;37929;53.218;6.548;2023-04-22T07:56:42;10.38;;;8.82;;
51901;SDS011;37929;53.218;6.548;2023-04-22T07:59:08;11.95;;;8.98;;
51901;SDS011;37929;53.218;6.548;2023-04-22T08:01:34;10.10;;;8.77;;
51901;SDS011;37929;53.218;6.548;2023-04-22T08:04:00;12.13;;;9.55;;
51901;SDS011;37929;53.218;6.548;2023-04-22T08:06:29;10.90;;;8.80;;
51901;SDS011;37929;53.218;6.548;2023-04-22T08:08:56;11.50;;;8.93;;
51901;SDS011;37929;53.218;6.548;2023-04-22T08:11:21;12.60;;;8.80;;
51901;SDS011;37929;53.218;6.548;2023-04-22T08:13:47;12.63;;;9.07;;
51901;SDS011;37929;53.218;6.548;2023-04-22T08:16:13;16.48;;;10.73;;
51901;SDS011;37929;53.218;6.548;2023-04-22T08:18:39;14.45;;;11.15;;
51901;SDS011;37929;53.218;6.548;2023-04-22T08:21:05;12.75;;;10.48;;
51901;SDS011;37929;53.218;6.548;2023-04-22T08:23:31;14.30;;;11.20;;
51901;SDS011;37929;53.218;6.548;2023-04-22T08:25:56;14.60;;;12.02;;
51901;SDS011;37929;53.218;6.548;2023-04-22T08:28:22;13.65;;;11.30;;
51901;SDS011;37929;53.218;6.548;2023-04-22T08:30:48;11.80;;;9.48;;
51901;SDS011;37929;53.218;6.548;2023-04-22T08:33:15;11.63;;;9.98;;
51901;SDS011;37929;53.218;6.548;2023-04-22T08:35:41;11.43;;;9.80;;
51901;SDS011;37929;53.218;6.548;2023-04-22T08:38:07;13.07;;;9.30;;
51901;SDS011;37929;53.218;6.548;2023-04-22T08:40:33;11.93;;;9.57;;
51901;SDS011;37929;53.218;6.548;2023-04-22T08:42:59;12.38;;;9.32;;
51901;SDS011;37929;53.218;6.548;2023-04-22T08:45:25;12.13;;;9.50;;
51901;SDS011;37929;53.218;6.548;2023-04-22T08:47:51;11.60;;;9.23;;
51901;SDS011;37929;53.218;6.548;2023-04-22T08:50:19;10.15;;;8.50;;
51901;SDS011;37929;53.218;6.548;2023-04-22T08:52:46;10.52;;;7.78;;
51901;SDS011;37929;53.218;6.548;2023-04-22T08:55:12;11.10;;;8.73;;
51901;SDS011;37929;53.218;6.548;2023-04-22T08:57:38;9.60;;;7.85;;
51901;SDS011;37929;53.218;6.548;2023-04-22T09:00:05;11.90;;;8.57;;
51901;SDS011;37929;53.218;6.548;2023-04-22T09:02:33;12.27;;;8.55;;
51901;SDS011;37929;53.218;6.548;2023-04-22T09:05:01;9.90;;;8.13;;
51901;SDS011;37929;53.218;6.548;2023-04-22T09:07:30;11.05;;;8.20;;
51901;SDS011;37929;53.218;6.548;2023-04-22T09:09:56;9.63;;;7.70;;
51901;SDS011;37929;53.218;6.548;2023-04-22T09:12:22;9.02;;;7.85;;
51901;SDS011;37929;53.218;6.548;2023-04-22T09:14:52;9.40;;;7.90;;
51901;SDS011;37929;53.218;6.548;2023-04-22T09:17:32;10.57;;;8.27;;
51901;SDS011;37929;53.218;6.548;2023-04-22T09:20:03;10.55;;;7.78;;
51901;SDS011;37929;53.218;6.548;2023-04-22T09:22:38;9.27;;;7.80;;
51901;SDS011;37929;53.218;6.548;2023-04-22T09:25:17;9.18;;;7.45;;
51901;SDS011;37929;53.218;6.548;2023-04-22T09:27:50;9.52;;;7.20;;
51901;SDS011;37929;53.218;6.548;2023-04-22T09:30:21;8.85;;;7.72;;
51901;SDS011;37929;53.218;6.548;2023-04-22T09:32:55;8.80;;;7.43;;
51901;SDS011;37929;53.218;6.548;2023-04-22T09:35:27;8.55;;;7.28;;
51901;SDS011;37929;53.218;6.548;2023-04-22T09:37:55;8.90;;;6.82;;
51901;SDS011;37929;53.218;6.548;2023-04-22T09:40:22;8.73;;;7.63;;
51901;SDS011;37929;53.218;6.548;2023-04-22T09:42:55;8.43;;;7.00;;
51901;SDS011;37929;53.218;6.548;2023-04-22T09:48:09;8.43;;;7.10;;
51901;SDS011;37929;53.218;6.548;2023-04-22T09:50:42;9.45;;;7.43;;
51901;SDS011;37929;53.218;6.548;2023-04-22T09:53:10;8.70;;;6.85;;
51901;SDS011;37929;53.218;6.548;2023-04-22T09:55:43;7.97;;;6.50;;
51901;SDS011;37929;53.218;6.548;2023-04-22T09:58:12;7.60;;;6.32;;
51901;SDS011;37929;53.218;6.548;2023-04-22T10:00:47;9.27;;;7.20;;
51901;SDS011;37929;53.218;6.548;2023-04-22T10:03:21;8.80;;;6.35;;
51901;SDS011;37929;53.218;6.548;2023-04-22T10:05:47;7.72;;;6.63;;
51901;SDS011;37929;53.218;6.548;2023-04-22T10:08:13;7.57;;;6.22;;
51901;SDS011;37929;53.218;6.548;2023-04-22T10:10:40;7.88;;;6.30;;
51901;SDS011;37929;53.218;6.548;2023-04-22T10:13:07;7.85;;;6.40;;
51901;SDS011;37929;53.218;6.548;2023-04-22T10:15:39;6.38;;;5.40;;
51901;SDS011;37929;53.218;6.548;2023-04-22T10:18:14;6.25;;;5.20;;
51901;SDS011;37929;53.218;6.548;2023-04-22T10:20:44;6.47;;;5.40;;
51901;SDS011;37929;53.218;6.548;2023-04-22T10:23:13;9.65;;;7.78;;
51901;SDS011;37929;53.218;6.548;2023-04-22T10:25:42;9.95;;;7.97;;
51901;SDS011;37929;53.218;6.548;2023-04-22T10:28:14;9.90;;;7.90;;
51901;SDS011;37929;53.218;6.548;2023-04-22T10:30:40;9.75;;;7.75;;
51901;SDS011;37929;53.218;6.548;2023-04-22T10:36:15;7.65;;;6.95;;
51901;SDS011;37929;53.218;6.548;2023-04-22T10:41:21;8.38;;;7.57;;
51901;SDS011;37929;53.218;6.548;2023-04-22T10:44:27;8.63;;;7.40;;
51901;SDS011;37929;53.218;6.548;2023-04-22T10:49:23;7.22;;;6.53;;
51901;SDS011;37929;53.218;6.548;2023-04-22T10:51:51;7.55;;;6.80;;
51901;SDS011;37929;53.218;6.548;2023-04-22T10:59:57;8.20;;;6.72;;
51901;SDS011;37929;53.218;6.548;2023-04-22T11:02:24;7.68;;;6.88;;
51901;SDS011;37929;53.218;6.548;2023-04-22T11:04:50;8.82;;;7.03;;
51901;SDS011;37929;53.218;6.548;2023-04-22T11:09:51;7.70;;;6.35;;
51901;SDS011;37929;53.218;6.548;2023-04-22T11:15:10;8.32;;;6.18;;
51901;SDS011;37929;53.218;6.548;2023-04-22T11:17:42;7.10;;;6.35;;
51901;SDS011;37929;53.218;6.548;2023-04-22T11:20:09;6.90;;;5.90;;
51901;SDS011;37929;53.218;6.548;2023-04-22T11:22:52;6.93;;;6.20;;
51901;SDS011;37929;53.218;6.548;2023-04-22T11:25:19;7.90;;;6.47;;
51901;SDS011;37929;53.218;6.548;2023-04-22T11:27:45;7.25;;;6.38;;
51901;SDS011;37929;53.218;6.548;2023-04-22T11:30:12;6.90;;;5.60;;
51901;SDS011;37929;53.218;6.548;2023-04-22T11:32:43;7.20;;;6.40;;
51901;SDS011;37929;53.218;6.548;2023-04-22T11:35:12;7.40;;;6.18;;
51901;SDS011;37929;53.218;6.548;2023-04-22T11:37:58;6.60;;;5.65;;
51901;SDS011;37929;53.218;6.548;2023-04-22T11:40:29;6.75;;;5.50;;
51901;SDS011;37929;53.218;6.548;2023-04-22T11:43:00;6.90;;;5.88;;
51901;SDS011;37929;53.218;6.548;2023-04-22T11:45:28;7.05;;;6.00;;
51901;SDS011;37929;53.218;6.548;2023-04-22T11:47:55;7.35;;;6.45;;
51901;SDS011;37929;53.218;6.548;2023-04-22T11:50:22;7.05;;;6.35;;
51901;SDS011;37929;53.218;6.548;2023-04-22T11:52:53;6.35;;;5.65;;
51901;SDS011;37929;53.218;6.548;2023-04-22T11:55:29;6.72;;;5.75;;
51901;SDS011;37929;53.218;6.548;2023-04-22T12:00:27;6.90;;;5.55;;
51901;SDS011;37929;53.218;6.548;2023-04-22T12:02:56;7.70;;;6.35;;
51901;SDS011;37929;53.218;6.548;2023-04-22T12:08:00;6.55;;;5.15;;
51901;SDS011;37929;53.218;6.548;2023-04-22T12:10:27;6.65;;;5.18;;
51901;SDS011;37929;53.218;6.548;2023-04-22T12:12:53;7.07;;;5.10;;
51901;SDS011;37929;53.218;6.548;2023-04-22T12:15:19;6.25;;;5.22;;
51901;SDS011;37929;53.218;6.548;2023-04-22T12:17:48;5.72;;;5.05;;
51901;SDS011;37929;53.218;6.548;2023-04-22T12:20:15;6.32;;;5.18;;
51901;SDS011;37929;53.218;6.548;2023-04-22T12:22:41;5.80;;;4.45;;
51901;SDS011;37929;53.218;6.548;2023-04-22T12:25:06;5.65;;;4.47;;
51901;SDS011;37929;53.218;6.548;2023-04-22T12:27:33;5.75;;;4.50;;
51901;SDS011;37929;53.218;6.548;2023-04-22T12:29:59;4.70;;;4.15;;
51901;SDS011;37929;53.218;6.548;2023-04-22T12:32:25;5.00;;;3.83;;
51901;SDS011;37929;53.218;6.548;2023-04-22T12:34:51;4.28;;;3.55;;
51901;SDS011;37929;53.218;6.548;2023-04-22T12:37:18;7.10;;;4.35;;
51901;SDS011;37929;53.218;6.548;2023-04-22T12:39:44;4.85;;;4.35;;
51901;SDS011;37929;53.218;6.548;2023-04-22T12:42:11;5.07;;;4.07;;
51901;SDS011;37929;53.218;6.548;2023-04-22T12:44:37;6.07;;;4.50;;
51901;SDS011;37929;53.218;6.548;2023-04-22T12:47:03;5.25;;;4.60;;
51901;SDS011;37929;53.218;6.548;2023-04-22T12:49:28;5.85;;;4.57;;
51901;SDS011;37929;53.218;6.548;2023-04-22T12:51:54;6.32;;;5.38;;
51901;SDS011;37929;53.218;6.548;2023-04-22T12:54:20;7.78;;;6.38;;
51901;SDS011;37929;53.218;6.548;2023-04-22T12:56:46;5.95;;;5.30;;
51901;SDS011;37929;53.218;6.548;2023-04-22T12:59:12;7.15;;;5.80;;
51901;SDS011;37929;53.218;6.548;2023-04-22T13:01:38;8.15;;;6.05;;
51901;SDS011;37929;53.218;6.548;2023-04-22T13:04:04;6.70;;;5.82;;
51901;SDS011;37929;53.218;6.548;2023-04-22T13:06:30;9.20;;;5.35;;
51901;SDS011;37929;53.218;6.548;2023-04-22T13:08:56;6.97;;;6.13;;
51901;SDS011;37929;53.218;6.548;2023-04-22T13:11:22;6.25;;;5.65;;
51901;SDS011;37929;53.218;6.548;2023-04-22T13:13:49;7.47;;;5.90;;
51901;SDS011;37929;53.218;6.548;2023-04-22T13:16:16;8.48;;;5.95;;
51901;SDS011;37929;53.218;6.548;2023-04-22T13:18:42;7.40;;;6.00;;
51901;SDS011;37929;53.218;6.548;2023-04-22T13:21:07;7.00;;;5.53;;
51901;SDS011;37929;53.218;6.548;2023-04-22T13:23:33;5.85;;;5.25;;
51901;SDS011;37929;53.218;6.548;2023-04-22T13:25:59;7.78;;;5.82;;
51901;SDS011;37929;53.218;6.548;2023-04-22T13:28:28;7.40;;;5.82;;
51901;SDS011;37929;53.218;6.548;2023-04-22T13:30:54;6.57;;;5.78;;
51901;SDS011;37929;53.218;6.548;2023-04-22T13:33:20;7.95;;;6.03;;
51901;SDS011;37929;53.218;6.548;2023-04-22T13:35:46;9.57;;;6.15;;
51901;SDS011;37929;53.218;6.548;2023-04-22T13:38:12;6.72;;;6.13;;
51901;SDS011;37929;53.218;6.548;2023-04-22T13:40:38;6.78;;;5.90;;
51901;SDS011;37929;53.218;6.548;2023-04-22T13:43:04;7.78;;;6.35;;
51901;SDS011;37929;53.218;6.548;2023-04-22T13:45:30;8.25;;;7.00;;
51901;SDS011;37929;53.218;6.548;2023-04-22T13:47:55;7.50;;;6.43;;
51901;SDS011;37929;53.218;6.548;2023-04-22T13:50:22;7.90;;;7.10;;
51901;SDS011;37929;53.218;6.548;2023-04-22T13:52:48;7.75;;;6.72;;
51901;SDS011;37929;53.218;6.548;2023-04-22T13:55:13;8.88;;;7.13;;
51901;SDS011;37929;53.218;6.548;2023-04-22T13:57:39;8.23;;;7.22;;
51901;SDS011;37929;53.218;6.548;2023-04-22T14:00:05;7.95;;;6.35;;
51901;SDS011;37929;53.218;6.548;2023-04-22T14:02:33;8.40;;;6.53;;
51901;SDS011;37929;53.218;6.548;2023-04-22T14:04:59;8.07;;;6.75;;
51901;SDS011;37929;53.218;6.548;2023-04-22T14:07:25;8.20;;;7.05;;
51901;SDS011;37929;53.218;6.548;2023-04-22T14:09:51;8.82;;;7.03;;
51901;SDS011;37929;53.218;6.548;2023-04-22T14:12:17;7.63;;;6.82;;
51901;SDS011;37929;53.218;6.548;2023-04-22T14:14:43;11.07;;;7.45;;
51901;SDS011;37929;53.218;6.548;2023-04-22T14:17:08;7.63;;;6.50;;
51901;SDS011;37929;53.218;6.548;2023-04-22T14:19:34;7.63;;;6.82;;
51901;SDS011;37929;53.218;6.548;2023-04-22T14:22:02;8.50;;;6.32;;
51901;SDS011;37929;53.218;6.548;2023-04-22T14:24:28;7.85;;;6.57;;
51901;SDS011;37929;53.218;6.548;2023-04-22T14:26:56;8.45;;;6.88;;
51901;SDS011;37929;53.218;6.548;2023-04-22T14:29:23;7.47;;;6.68;;
51901;SDS011;37929;53.218;6.548;2023-04-22T14:31:50;8.73;;;7.03;;
51901;SDS011;37929;53.218;6.548;2023-04-22T14:34:16;9.85;;;8.65;;
51901;SDS011;37929;53.218;6.548;2023-04-22T14:36:42;10.27;;;8.25;;
51901;SDS011;37929;53.218;6.548;2023-04-22T14:39:09;11.18;;;8.57;;
51901;SDS011;37929;53.218;6.548;2023-04-22T14:41:35;10.98;;;9.52;;
51901;SDS011;37929;53.218;6.548;2023-04-22T14:44:00;12.25;;;9.60;;
51901;SDS011;37929;53.218;6.548;2023-04-22T14:46:26;13.75;;;9.88;;
51901;SDS011;37929;53.218;6.548;2023-04-22T14:48:52;16.52;;;11.52;;
51901;SDS011;37929;53.218;6.548;2023-04-22T14:51:17;14.43;;;11.13;;
51901;SDS011;37929;53.218;6.548;2023-04-22T14:53:43;14.90;;;11.30;;
51901;SDS011;37929;53.218;6.548;2023-04-22T14:56:09;15.10;;;11.77;;
51901;SDS011;37929;53.218;6.548;2023-04-22T14:58:36;13.77;;;11.10;;
51901;SDS011;37929;53.218;6.548;2023-04-22T15:01:02;16.05;;;11.30;;
51901;SDS011;37929;53.218;6.548;2023-04-22T15:03:27;15.63;;;11.60;;
51901;SDS011;37929;53.218;6.548;2023-04-22T15:05:54;15.15;;;11.88;;